Soleil Weather Down

Nearby METAR Reports

 

KCNI - Canton/Cherokee, Georgia, USA
Distance from station: ENE 6mi, 10km
Updated: Sun, 17-Oct-2021 7:35am EDT
Clear
Clear
 Wind from NNW
Wind: NNW 5 mph , 7 km/h
Temperature: 46°F , 8°C
Wind Chill: 44°F , 7°C
Dew Point: 37°F , 3°C
Humidity: 71%
Barometer: 30.17 inHg , 1021.7 hPa
Clouds: Clear
Visibility: 10 miles , 16 km
2021/10/17 11:35 KCNI 171135Z AUTO 33004KT 10SM CLR 08/03 A3017 RMK AO2
KRYY - Marietta Mccolum, Georgia, USA
Distance from station: SSW 18mi, 29km
Updated: Sun, 17-Oct-2021 7:50am EDT
Clear
Clear
 Wind from WNW
Wind: WNW 6 mph , 9 km/h
Temperature: 46°F , 8°C
Wind Chill: 43°F , 6°C
Dew Point: 41°F , 5°C
Humidity: 82%
Barometer: 30.18 inHg , 1022 hPa
Clouds: Clear
Visibility: 10 miles , 16 km
2021/10/17 11:50 KRYY 171150Z 30005KT 10SM CLR 08/05 A3018 RMK AO2 SLP218 T00780050 10100 20078 53010 $
KVPC - Cartersville, Georgia, USA
Distance from station: WSW 22mi, 35km
Updated: Sun, 17-Oct-2021 7:35am EDT
Clear
Clear
 Wind from calm
Wind: Calm
Temperature: 45°F , 7°C
Dew Point: 41°F , 5°C
Humidity: 87%
Barometer: 30.19 inHg , 1022.4 hPa
Clouds: Clear
Visibility: 10 miles , 16 km
2021/10/17 11:35 KVPC 171135Z AUTO 00000KT 10SM CLR 07/05 A3019 RMK AO2
 
KMGE - Dobbins Afb/Mari, Georgia, USA
Distance from station: S 24mi, 39km
Updated: Sun, 17-Oct-2021 6:56am EDT
Clear
Clear
 Wind from NNW
Wind: NNW 5 mph , 7 km/h
Temperature: 48°F , 9°C
Wind Chill: 46°F , 8°C
Dew Point: 39°F , 4°C
Humidity: 71%
Barometer: 30.15 inHg , 1021 hPa
Clouds: Clear
Visibility: 10 miles , 16 km
2021/10/17 10:56 KMGE 171056Z 33004KT 10SM CLR 09/04 A3015 RMK AO2A SLP210 T00860038 $
KPDK - Peachtree/Dekalb, Georgia, USA
Distance from station: SSE 29mi, 47km
Updated: Sun, 17-Oct-2021 7:53am EDT
Clear
Clear
 Wind from NNW
Wind: NNW 6 mph , 9 km/h
Temperature: 46°F , 8°C
Wind Chill: 43°F , 6°C
Dew Point: 39°F , 4°C
Humidity: 76%
Barometer: 30.16 inHg , 1021.3 hPa
Clouds: Clear
Visibility: 10 miles , 16 km
2021/10/17 11:53 KPDK 171153Z 33005KT 10SM CLR 08/04 A3016 RMK AO2 SLP216 T00830039 10106 20072 53012
KFTY - Atlanta/Fulton, Georgia, USA
Distance from station: S 34mi, 54km
Updated: Sun, 17-Oct-2021 7:53am EDT
Clear
Clear
 Wind from N
Wind: N 5 mph , 7 km/h
Temperature: 46°F , 8°C
Wind Chill: 44°F , 7°C
Dew Point: 39°F , 4°C
Humidity: 76%
Barometer: 30.17 inHg , 1021.7 hPa
Clouds: Clear
Visibility: 10 miles , 16 km
2021/10/17 11:53 KFTY 171153Z 35004KT 10SM CLR 08/04 A3017 RMK AO2 SLP214 T00780044 10106 20078 52011
 
KPUJ - Atlanta/Paulding, Georgia, USA
Distance from station: SW 34mi, 55km
Updated: Sun, 17-Oct-2021 7:55am EDT
Clear
Clear
 Wind from NNW
Wind: NNW 10 mph , 17 km/h, Gust: 16 mph , 26 km/h
Temperature: 45°F , 7°C
Wind Chill: 40°F , 4°C
Dew Point: 37°F , 3°C
Humidity: 76%
Barometer: 30.18 inHg , 1022 hPa
Clouds: Clear
Visibility: 10 miles , 16 km
2021/10/17 11:55 KPUJ 171155Z AUTO 34009G14KT 10SM CLR 07/03 A3018 RMK AO2
KDNN - Dalton, Georgia, USA
Distance from station: NW 37mi, 59km
Updated: Sun, 17-Oct-2021 7:35am EDT
Clear
Clear
 Wind from NNW
Wind: NNW 6 mph , 9 km/h
Temperature: 46°F , 8°C
Wind Chill: 43°F , 6°C
Dew Point: 43°F , 6°C
Humidity: 87%
Barometer: 30.21 inHg , 1023 hPa
Clouds: Clear
Visibility: 10 miles , 16 km
2021/10/17 11:35 KDNN 171135Z AUTO 34005KT 10SM CLR 08/06 A3021 RMK AO2
KLZU - Lawrenceville, Georgia, USA
Distance from station: ESE 37mi, 59km
Updated: Sun, 17-Oct-2021 7:56am EDT
Clear
Clear
 Wind from calm
Wind: Calm
Temperature: 45°F , 7°C
Dew Point: 39°F , 4°C
Humidity: 81%
Barometer: 30.16 inHg , 1021.3 hPa
Clouds: Clear
Visibility: 10 miles , 16 km
2021/10/17 11:56 KLZU 171156Z 00000KT 10SM CLR 07/04 A3016 RMK AO2 SLP223 T00670044 10094 20061 53013
 
KRMG - Rome, Georgia, USA
Distance from station: W 38mi, 61km
Updated: Sun, 17-Oct-2021 7:53am EDT
Clear
Clear
 Wind from calm
Wind: Calm
Temperature: 46°F , 8°C
Dew Point: 39°F , 4°C
Humidity: 76%
Barometer: 30.20 inHg , 1022.7 hPa
Clouds: Clear
Visibility: 10 miles , 16 km
2021/10/17 11:53 KRMG 171153Z AUTO 00000KT 10SM CLR 08/04 A3020 RMK AO2 SLP222 T00830044 10100 20078 53008
KGVL - Gainesville, Georgia, USA
Distance from station: E 39mi, 62km
Updated: Sun, 17-Oct-2021 7:53am EDT
Clear
Clear
 Wind from calm
Wind: Calm
Temperature: 46°F , 8°C
Dew Point: 37°F , 3°C
Humidity: 71%
Barometer: 30.16 inHg , 1021.3 hPa
Clouds: Clear
Visibility: 10 miles , 16 km
2021/10/17 11:53 KGVL 171153Z AUTO 00000KT 10SM CLR 08/03 A3016 RMK AO2 SLP208 T00780033 10117 20078 52011
KATL - Atlanta, Georgia, USA
Distance from station: S 44mi, 71km
Updated: Sun, 17-Oct-2021 7:52am EDT
Clear
Clear
 Wind from NW
Wind: NW 10 mph , 17 km/h
Temperature: 46°F , 8°C
Wind Chill: 41°F , 5°C
Dew Point: 39°F , 4°C
Humidity: 76%
Barometer: 30.16 inHg , 1021.3 hPa
Clouds: Clear
Visibility: 10 miles , 16 km
2021/10/17 11:52 KATL 171152Z 32009KT 10SM CLR 08/04 A3016 RMK AO2 SLP212 T00830044 10117 20083 53010